createdAt,value
2022-09-06T00:00:24.930Z,99.90
2022-09-06T00:05:30.899Z,99.90
2022-09-06T00:10:33.351Z,99.90
2022-09-06T00:15:36.495Z,99.90
2022-09-06T00:20:41.470Z,99.90
2022-09-06T00:25:43.329Z,99.90
2022-09-06T00:30:45.486Z,99.90
2022-09-06T00:35:49.407Z,99.90
2022-09-06T00:40:51.369Z,99.90
2022-09-06T00:45:54.342Z,99.90
2022-09-06T00:51:02.019Z,99.90
2022-09-06T00:56:04.060Z,99.90
2022-09-06T01:01:06.869Z,99.90
2022-09-06T01:06:17.640Z,99.90
2022-09-06T01:11:53.762Z,99.90
2022-09-06T01:17:30.987Z,99.90
2022-09-06T01:22:51.011Z,99.90
2022-09-06T01:28:10.855Z,99.90
2022-09-06T01:33:48.260Z,99.90
2022-09-06T01:38:50.310Z,99.90
2022-09-06T01:43:53.803Z,99.90
2022-09-06T01:48:58.575Z,99.90
2022-09-06T01:54:09.298Z,99.90
2022-09-06T01:59:20.494Z,99.90
2022-09-06T02:04:28.924Z,99.90
2022-09-06T02:09:37.394Z,99.90
2022-09-06T02:14:56.005Z,99.90
2022-09-06T02:20:16.335Z,99.90
2022-09-06T02:25:34.910Z,99.90
2022-09-06T02:30:39.945Z,99.90
2022-09-06T02:35:44.911Z,99.90
2022-09-06T02:40:47.948Z,99.90
2022-09-06T02:45:49.789Z,99.90
2022-09-06T02:50:51.768Z,99.90
2022-09-06T02:55:53.639Z,99.90
2022-09-06T03:00:55.597Z,99.90
2022-09-06T03:05:57.639Z,99.90
2022-09-06T03:11:01.029Z,99.90
2022-09-06T03:16:02.991Z,99.90
2022-09-06T03:21:05.156Z,99.90
2022-09-06T03:26:07.808Z,99.90
2022-09-06T03:31:09.946Z,99.90
2022-09-06T03:36:11.920Z,99.90
2022-09-06T03:41:13.756Z,99.90
2022-09-06T03:46:15.635Z,99.90
2022-09-06T03:51:17.500Z,99.90
2022-09-06T03:56:19.319Z,99.90
2022-09-06T04:01:21.323Z,99.90
2022-09-06T04:06:23.193Z,99.90
2022-09-06T04:11:24.999Z,99.90
2022-09-06T04:16:26.915Z,99.90
2022-09-06T04:21:28.871Z,99.90
2022-09-06T04:26:30.869Z,99.90
2022-09-06T04:31:32.856Z,99.90
2022-09-06T04:36:34.812Z,99.90
2022-09-06T04:41:36.740Z,99.90
2022-09-06T04:46:41.715Z,99.90
2022-09-06T04:51:43.634Z,99.90
2022-09-06T04:56:45.454Z,99.90
2022-09-06T05:01:47.484Z,99.90
2022-09-06T05:06:49.583Z,99.90
2022-09-06T05:11:51.372Z,99.90
2022-09-06T05:16:54.472Z,99.90
2022-09-06T05:21:56.472Z,99.90
2022-09-06T05:26:58.788Z,99.90
2022-09-06T05:32:00.720Z,99.90
2022-09-06T05:37:02.779Z,99.90
2022-09-06T05:42:06.752Z,99.90
2022-09-06T05:47:08.579Z,99.90
2022-09-06T05:52:10.692Z,99.90
2022-09-06T05:57:12.637Z,99.90
2022-09-06T06:02:14.465Z,99.90
2022-09-06T06:07:16.403Z,99.90
2022-09-06T06:12:18.359Z,99.90
2022-09-06T06:17:20.338Z,99.90
2022-09-06T06:22:22.203Z,99.90
2022-09-06T06:27:24.149Z,99.90
2022-09-06T06:32:26.380Z,99.90
2022-09-06T06:37:28.221Z,99.90
2022-09-06T06:42:30.054Z,99.90
2022-09-06T06:47:31.862Z,60.40
2022-09-06T06:52:33.688Z,43.50
2022-09-06T06:57:35.539Z,43.90
2022-09-06T07:02:37.388Z,52.70
2022-09-06T07:07:41.012Z,53.10
2022-09-06T07:12:43.425Z,52.70
2022-09-06T07:17:45.271Z,49.00
2022-09-06T07:22:47.096Z,39.70
2022-09-06T07:27:49.916Z,34.60
2022-09-06T07:32:52.339Z,34.10
2022-09-06T07:37:59.622Z,32.20
2022-09-06T07:43:01.432Z,31.10
2022-09-06T07:48:03.299Z,35.30
2022-09-06T07:53:12.674Z,41.30
2022-09-06T07:58:17.609Z,49.50
2022-09-06T08:03:20.002Z,41.40
2022-09-06T08:13:44.022Z,42.20
2022-09-06T08:18:50.576Z,39.10
2022-09-06T08:23:57.849Z,42.20
2022-09-06T08:29:01.689Z,43.40
2022-09-06T08:34:04.867Z,45.40
2022-09-06T08:39:09.877Z,51.10
2022-09-06T08:49:56.833Z,55.10
2022-09-06T08:55:04.763Z,52.90
2022-09-06T09:00:11.223Z,43.90
2022-09-06T09:05:23.224Z,46.00
2022-09-06T09:10:39.608Z,52.30
2022-09-06T09:15:41.424Z,53.20
2022-09-06T09:20:43.242Z,52.10
2022-09-06T09:25:46.614Z,47.40
2022-09-06T09:30:51.688Z,49.40
2022-09-06T09:35:54.747Z,53.60
2022-09-06T09:41:03.382Z,56.50
2022-09-06T09:46:13.730Z,61.30
2022-09-06T09:51:40.024Z,62.50
2022-09-06T09:56:44.751Z,64.00
2022-09-06T10:01:47.266Z,65.40
2022-09-06T10:12:18.143Z,63.50
2022-09-06T10:17:38.607Z,60.90
2022-09-06T10:23:01.686Z,59.50
2022-09-06T10:28:28.151Z,61.50
2022-09-06T10:33:58.304Z,61.40
2022-09-06T10:39:28.448Z,59.80
2022-09-06T10:45:02.845Z,59.60
2022-09-06T10:50:06.098Z,59.90
2022-09-06T10:55:12.748Z,57.60
2022-09-06T11:00:15.565Z,58.20
2022-09-06T11:05:41.594Z,60.60
2022-09-06T11:10:45.567Z,61.00
2022-09-06T11:16:10.307Z,58.50
2022-09-06T11:21:45.568Z,57.20
2022-09-06T11:27:06.046Z,57.60
2022-09-06T11:32:33.238Z,56.70
2022-09-06T11:37:45.291Z,58.70
2022-09-06T11:42:47.854Z,59.00
2022-09-06T11:47:51.727Z,59.10
2022-09-06T11:53:17.018Z,61.90
2022-09-06T11:58:19.069Z,60.20
2022-09-06T12:04:05.142Z,60.30
2022-09-06T12:09:30.287Z,61.60
2022-09-06T12:14:43.632Z,62.90
2022-09-06T12:19:45.432Z,62.80
2022-09-06T12:24:47.280Z,62.70
2022-09-06T12:29:58.151Z,64.00
2022-09-06T12:40:48.747Z,66.00
2022-09-06T12:45:52.410Z,67.80
2022-09-06T12:51:13.533Z,68.00
2022-09-06T12:56:20.643Z,68.00
2022-09-06T13:01:32.966Z,70.80
2022-09-06T13:06:41.882Z,69.20
2022-09-06T13:11:45.335Z,73.10
2022-09-06T13:16:50.547Z,72.70
2022-09-06T13:21:52.676Z,65.20
2022-09-06T13:26:54.959Z,65.50
2022-09-06T13:31:59.325Z,64.90
2022-09-06T13:37:07.235Z,64.20
2022-09-06T13:42:11.823Z,65.60
2022-09-06T13:47:13.608Z,66.80
2022-09-06T13:52:15.527Z,66.70
2022-09-06T13:57:21.059Z,65.20
2022-09-06T14:02:26.654Z,64.10
2022-09-06T14:07:28.597Z,66.60
2022-09-06T14:12:30.723Z,67.20
2022-09-06T14:17:33.275Z,68.10
2022-09-06T14:22:35.150Z,66.40
2022-09-06T14:27:37.244Z,62.40
2022-09-06T14:32:39.071Z,63.90
2022-09-06T14:37:41.030Z,63.20
2022-09-06T14:42:42.818Z,65.10
2022-09-06T14:47:44.650Z,66.30
2022-09-06T14:52:46.651Z,66.60
2022-09-06T14:57:49.064Z,68.50
2022-09-06T15:02:51.016Z,68.40
2022-09-06T15:07:53.142Z,69.20
2022-09-06T15:12:55.124Z,71.30
2022-09-06T15:17:56.999Z,71.50
2022-09-06T15:23:15.180Z,72.70
2022-09-06T15:28:21.048Z,74.70
2022-09-06T15:33:22.894Z,76.10
2022-09-06T15:38:24.943Z,76.00
2022-09-06T15:43:26.945Z,80.90
2022-09-06T15:48:28.878Z,80.40
2022-09-06T15:53:30.743Z,79.50
2022-09-06T15:58:33.095Z,86.10
2022-09-06T16:03:49.720Z,86.10
2022-09-06T16:08:56.064Z,90.50
2022-09-06T16:13:57.876Z,90.50
2022-09-06T16:19:00.209Z,92.50
2022-09-06T16:24:07.961Z,95.60
2022-09-06T16:29:11.647Z,99.90
2022-09-06T16:34:14.532Z,99.90
2022-09-06T16:39:16.481Z,99.90
2022-09-06T16:44:19.312Z,99.90
2022-09-06T16:49:21.212Z,99.90
2022-09-06T16:54:22.993Z,99.90
2022-09-06T16:59:25.160Z,99.90
2022-09-06T17:04:26.968Z,99.90
2022-09-06T17:09:28.904Z,99.90
2022-09-06T17:14:30.847Z,99.90
2022-09-06T17:19:43.284Z,99.90
2022-09-06T17:24:45.047Z,99.90
2022-09-06T17:29:46.916Z,99.90
2022-09-06T17:34:48.803Z,99.90
2022-09-06T17:39:50.668Z,99.90
2022-09-06T17:44:52.515Z,99.90
2022-09-06T17:49:54.319Z,99.90
2022-09-06T17:54:56.123Z,99.90
2022-09-06T17:59:57.969Z,99.90
2022-09-06T18:04:59.803Z,99.90
2022-09-06T18:10:01.690Z,99.90
2022-09-06T18:15:03.676Z,99.90
2022-09-06T18:20:06.150Z,99.90
2022-09-06T18:25:08.958Z,99.90
2022-09-06T18:30:14.775Z,99.90
2022-09-06T18:35:16.900Z,99.90
2022-09-06T18:40:18.672Z,99.90
2022-09-06T18:45:20.430Z,99.90
2022-09-06T18:50:22.959Z,99.90
2022-09-06T18:55:24.766Z,99.90
2022-09-06T19:00:26.621Z,99.90
2022-09-06T19:05:28.605Z,99.90
2022-09-06T19:10:30.629Z,99.90
2022-09-06T19:15:32.392Z,99.90
2022-09-06T19:20:34.376Z,99.90
2022-09-06T19:25:36.139Z,99.90
2022-09-06T19:30:37.973Z,99.90
2022-09-06T19:35:55.715Z,99.90
2022-09-06T19:41:06.986Z,99.90
2022-09-06T19:46:10.848Z,99.90
2022-09-06T19:51:14.646Z,99.90
2022-09-06T19:56:18.498Z,99.90
2022-09-06T20:01:20.334Z,99.90
2022-09-06T20:06:22.761Z,99.90
2022-09-06T20:11:27.308Z,99.90
2022-09-06T20:16:30.419Z,99.90
2022-09-06T20:21:32.420Z,99.90
2022-09-06T20:26:34.342Z,99.90
2022-09-06T20:31:37.471Z,99.90
2022-09-06T20:36:39.397Z,99.90
2022-09-06T20:41:41.185Z,99.90
2022-09-06T20:46:43.031Z,99.90
2022-09-06T20:51:45.140Z,99.90
2022-09-06T20:56:46.880Z,99.90
2022-09-06T21:01:48.773Z,99.90
2022-09-06T21:06:51.029Z,99.90
2022-09-06T21:11:54.249Z,99.90
2022-09-06T21:16:56.214Z,99.90
2022-09-06T21:21:58.049Z,99.90
2022-09-06T21:26:59.800Z,99.90
2022-09-06T21:32:01.638Z,99.90
2022-09-06T21:37:03.407Z,99.90
2022-09-06T21:42:05.451Z,99.90
2022-09-06T21:47:07.683Z,99.90
2022-09-06T21:52:09.649Z,99.90
2022-09-06T21:57:11.731Z,99.90
2022-09-06T22:02:15.574Z,99.90
2022-09-06T22:07:17.482Z,99.90
2022-09-06T22:12:19.406Z,99.90
2022-09-06T22:17:21.466Z,99.90
2022-09-06T22:22:23.262Z,99.90
2022-09-06T22:27:25.134Z,99.90
2022-09-06T22:32:26.945Z,99.90
2022-09-06T22:37:28.785Z,99.90
2022-09-06T22:42:30.739Z,99.90
2022-09-06T22:47:32.565Z,99.90
2022-09-06T22:52:34.348Z,99.90
2022-09-06T22:57:36.146Z,99.90
2022-09-06T23:02:38.006Z,99.90
2022-09-06T23:07:39.961Z,99.90
2022-09-06T23:12:42.040Z,99.90
2022-09-06T23:17:43.864Z,99.90
2022-09-06T23:22:46.749Z,99.90
2022-09-06T23:27:48.561Z,99.90
2022-09-06T23:32:50.391Z,99.90
2022-09-06T23:37:52.670Z,99.90
2022-09-06T23:42:54.693Z,99.90
2022-09-06T23:47:56.537Z,99.90
2022-09-06T23:52:58.349Z,99.90
2022-09-06T23:58:00.142Z,99.90
